createdAt,value
2018-12-18T00:01:46.302Z,99235.61
2018-12-18T00:04:19.144Z,99233.95
2018-12-18T00:06:50.538Z,99240.11
2018-12-18T00:09:19.866Z,99239.05
2018-12-18T00:11:49.389Z,99239.14
2018-12-18T00:14:19.008Z,99247.05
2018-12-18T00:16:48.332Z,99235.45
2018-12-18T00:19:18.023Z,99235.69
2018-12-18T00:21:47.568Z,99237.38
2018-12-18T00:24:16.893Z,99235.73
2018-12-18T00:26:46.111Z,99232.05
2018-12-18T00:29:15.357Z,99226.40
2018-12-18T00:31:44.587Z,99230.53
2018-12-18T00:34:14.921Z,99229.42
2018-12-18T00:36:45.036Z,99225.55
2018-12-18T00:39:15.749Z,99230.38
2018-12-18T00:41:45.401Z,99238.66
2018-12-18T00:44:14.741Z,99226.95
2018-12-18T00:46:44.597Z,99230.80
2018-12-18T00:49:13.945Z,99235.94
2018-12-18T00:51:43.386Z,99232.73
2018-12-18T00:54:13.073Z,99232.89
2018-12-18T00:56:42.524Z,99232.25
2018-12-18T00:59:11.910Z,99225.97
2018-12-18T01:01:43.856Z,99231.62
2018-12-18T01:04:13.181Z,99233.08
2018-12-18T01:06:42.477Z,99226.73
2018-12-18T01:09:12.602Z,99226.13
2018-12-18T01:11:41.919Z,99226.86
2018-12-18T01:14:12.163Z,99225.66
2018-12-18T01:16:42.143Z,99232.25
2018-12-18T01:19:11.463Z,99226.64
2018-12-18T01:21:40.824Z,99227.71
2018-12-18T01:24:10.788Z,99223.95
2018-12-18T01:26:40.147Z,99223.56
2018-12-18T01:29:09.361Z,99223.80
2018-12-18T01:31:38.667Z,99222.27
2018-12-18T01:34:08.761Z,99217.57
2018-12-18T01:36:38.999Z,99216.87
2018-12-18T01:39:09.183Z,99221.70
2018-12-18T01:41:38.442Z,99220.97
2018-12-18T01:44:07.718Z,99218.02
2018-12-18T01:46:37.227Z,99222.20
2018-12-18T01:49:06.886Z,99209.23
2018-12-18T01:51:36.238Z,99212.52
2018-12-18T01:54:05.464Z,99210.98
2018-12-18T01:56:34.912Z,99204.53
2018-12-18T01:59:04.628Z,99197.68
2018-12-18T02:01:33.864Z,99200.56
2018-12-18T02:04:06.141Z,99198.03
2018-12-18T02:06:35.359Z,99198.22
2018-12-18T02:09:07.617Z,99197.53
2018-12-18T02:11:38.315Z,99193.44
2018-12-18T02:14:07.912Z,99194.05
2018-12-18T02:16:38.171Z,99180.03
2018-12-18T02:19:07.364Z,99185.03
2018-12-18T02:21:37.542Z,99190.35
2018-12-18T02:24:07.903Z,99185.24
2018-12-18T02:26:37.897Z,99186.46
2018-12-18T02:29:07.289Z,99176.15
2018-12-18T02:31:36.500Z,99187.68
2018-12-18T02:34:13.478Z,99185.23
2018-12-18T02:36:37.798Z,99184.00
2018-12-18T02:39:08.238Z,99181.74
2018-12-18T02:41:38.149Z,99187.67
2018-12-18T02:44:07.480Z,99177.03
2018-12-18T02:46:36.863Z,99178.17
2018-12-18T02:49:06.319Z,99169.55
2018-12-18T02:51:35.756Z,99175.28
2018-12-18T02:54:05.299Z,99174.33
2018-12-18T02:56:35.435Z,99172.81
2018-12-18T02:59:06.040Z,99171.38
2018-12-18T03:01:35.395Z,99172.80
2018-12-18T03:04:05.133Z,99170.13
2018-12-18T03:06:34.451Z,99166.64
2018-12-18T03:09:05.464Z,99161.95
2018-12-18T03:11:36.877Z,99166.93
2018-12-18T03:14:06.865Z,99161.50
2018-12-18T03:16:36.224Z,99165.92
2018-12-18T03:19:06.259Z,99158.16
2018-12-18T03:21:35.695Z,99157.33
2018-12-18T03:24:06.919Z,99154.66
2018-12-18T03:26:36.968Z,99151.27
2018-12-18T03:29:06.195Z,99143.09
2018-12-18T03:31:38.097Z,99150.65
2018-12-18T03:34:07.511Z,99148.80
2018-12-18T03:36:36.794Z,99152.55
2018-12-18T03:39:07.231Z,99147.13
2018-12-18T03:41:37.925Z,99143.34
2018-12-18T03:44:07.327Z,99141.17
2018-12-18T03:46:36.726Z,99138.72
2018-12-18T03:49:06.971Z,99136.16
2018-12-18T03:51:36.541Z,99138.19
2018-12-18T03:54:06.137Z,99136.84
2018-12-18T03:56:35.569Z,99135.01
2018-12-18T03:59:06.468Z,99132.36
2018-12-18T04:01:35.758Z,99132.45
2018-12-18T04:04:05.928Z,99126.41
2018-12-18T04:06:35.196Z,99125.25
2018-12-18T04:09:07.434Z,99131.97
2018-12-18T04:11:42.378Z,99133.68
2018-12-18T04:14:11.731Z,99134.06
2018-12-18T04:16:41.171Z,99138.45
2018-12-18T04:19:11.120Z,99140.27
2018-12-18T04:21:41.236Z,99133.73
2018-12-18T04:24:10.578Z,99140.95
2018-12-18T04:26:40.220Z,99147.37
2018-12-18T04:29:09.784Z,99145.84
2018-12-18T04:31:39.174Z,99144.92
2018-12-18T04:34:08.335Z,99139.29
2018-12-18T04:36:38.711Z,99142.15
2018-12-18T04:39:08.720Z,99131.75
2018-12-18T04:41:38.024Z,99131.16
2018-12-18T04:44:08.131Z,99130.55
2018-12-18T04:46:38.305Z,99131.55
2018-12-18T04:49:07.643Z,99133.45
2018-12-18T04:51:36.933Z,99139.13
2018-12-18T04:54:07.809Z,99141.74
2018-12-18T04:56:37.245Z,99144.75
2018-12-18T04:59:06.502Z,99140.23
2018-12-18T05:01:35.886Z,99137.88
2018-12-18T05:04:05.886Z,99139.91
2018-12-18T05:06:36.014Z,99139.03
2018-12-18T05:09:09.218Z,99145.48
2018-12-18T05:11:39.511Z,99149.34
2018-12-18T05:14:09.580Z,99150.84
2018-12-18T05:16:39.660Z,99152.33
2018-12-18T05:19:09.914Z,99148.56
2018-12-18T05:21:40.118Z,99149.06
2018-12-18T05:24:09.555Z,99151.91
2018-12-18T05:26:39.134Z,99153.56
2018-12-18T05:29:08.673Z,99152.52
2018-12-18T05:31:39.014Z,99151.69
2018-12-18T05:34:08.339Z,99148.69
2018-12-18T05:36:39.201Z,99144.38
2018-12-18T05:39:08.672Z,99153.28
2018-12-18T05:41:37.946Z,99152.00
2018-12-18T05:44:09.535Z,99159.58
2018-12-18T05:46:39.129Z,99168.16
2018-12-18T05:49:08.577Z,99164.95
2018-12-18T05:51:38.072Z,99163.77
2018-12-18T05:54:08.683Z,99162.45
2018-12-18T05:56:38.721Z,99172.70
2018-12-18T05:59:08.105Z,99170.13
2018-12-18T06:01:37.647Z,99170.13
2018-12-18T06:04:07.291Z,99164.83
2018-12-18T06:06:36.710Z,99159.61
2018-12-18T06:09:07.905Z,99154.87
2018-12-18T06:11:37.362Z,99158.22
2018-12-18T06:14:07.432Z,99161.73
2018-12-18T06:16:37.591Z,99168.28
2018-12-18T06:19:08.195Z,99162.23
2018-12-18T06:21:37.618Z,99169.55
2018-12-18T06:24:07.251Z,99166.33
2018-12-18T06:26:36.663Z,99169.04
2018-12-18T06:29:06.032Z,99164.31
2018-12-18T06:31:35.545Z,99158.95
2018-12-18T06:34:05.207Z,99154.19
2018-12-18T06:36:35.416Z,99151.08
2018-12-18T06:39:07.296Z,99151.14
2018-12-18T06:41:36.598Z,99146.67
2018-12-18T06:44:06.621Z,99144.39
2018-12-18T06:46:36.175Z,99147.04
2018-12-18T06:49:05.525Z,99138.73
2018-12-18T06:51:35.201Z,99140.69
2018-12-18T06:54:04.791Z,99138.97
2018-12-18T06:56:34.273Z,99135.39
2018-12-18T06:59:05.126Z,99150.80
2018-12-18T07:01:34.445Z,99159.00
2018-12-18T07:04:03.918Z,99164.56
2018-12-18T07:06:33.770Z,99157.49
2018-12-18T07:09:05.885Z,99151.27
2018-12-18T07:11:37.037Z,99149.62
2018-12-18T07:14:07.256Z,99145.84
2018-12-18T07:16:37.477Z,99139.23
2018-12-18T07:19:07.561Z,99136.88
2018-12-18T07:21:37.026Z,99138.40
2018-12-18T07:24:06.487Z,99134.86
2018-12-18T07:26:35.986Z,99136.19
2018-12-18T07:29:05.521Z,99140.85
2018-12-18T07:31:34.806Z,99148.23
2018-12-18T07:34:05.062Z,99134.13
2018-12-18T07:36:34.411Z,99133.87
2018-12-18T07:39:05.947Z,99132.68
2018-12-18T07:41:35.221Z,99130.36
2018-12-18T07:44:05.887Z,99122.98
2018-12-18T07:46:35.138Z,99123.14
2018-12-18T07:49:04.827Z,99118.05
2018-12-18T07:51:35.408Z,99115.33
2018-12-18T07:54:05.622Z,99111.48
2018-12-18T07:56:34.982Z,99112.95
2018-12-18T07:59:04.577Z,99114.20
2018-12-18T08:01:34.342Z,99119.63
2018-12-18T08:04:04.263Z,99116.72
2018-12-18T08:06:34.104Z,99118.55
2018-12-18T08:09:05.856Z,99116.94
2018-12-18T08:11:36.096Z,99116.41
2018-12-18T08:14:05.794Z,99111.08
2018-12-18T08:16:36.627Z,99108.03
2018-12-18T08:19:06.846Z,99115.55
2018-12-18T08:21:36.927Z,99115.70
2018-12-18T08:24:07.113Z,99117.95
2018-12-18T08:26:37.141Z,99121.45
2018-12-18T08:29:06.654Z,99115.19
2018-12-18T08:31:36.832Z,99119.94
2018-12-18T08:34:06.767Z,99116.52
2018-12-18T08:36:36.206Z,99115.85
2018-12-18T08:39:09.142Z,99108.16
2018-12-18T08:41:39.756Z,99108.80
2018-12-18T08:44:09.900Z,99107.23
2018-12-18T08:46:39.815Z,99110.38
2018-12-18T08:49:09.979Z,99106.41
2018-12-18T08:51:40.188Z,99110.09
2018-12-18T08:54:10.071Z,99110.43
2018-12-18T08:56:39.916Z,99103.94
2018-12-18T08:59:09.773Z,99102.44
2018-12-18T09:01:40.142Z,99097.22
2018-12-18T09:04:10.428Z,99098.83
2018-12-18T09:06:42.538Z,99101.58
2018-12-18T09:09:12.586Z,99105.17
2018-12-18T09:11:42.767Z,99109.87
2018-12-18T09:14:14.014Z,99106.51
2018-12-18T09:16:49.541Z,99108.36
2018-12-18T09:19:19.146Z,99108.58
2018-12-18T09:21:48.963Z,99097.41
2018-12-18T09:24:18.742Z,99092.34
2018-12-18T09:26:48.887Z,99091.98
2018-12-18T09:29:18.977Z,99091.86
2018-12-18T09:31:48.736Z,99092.14
2018-12-18T09:34:18.439Z,99081.23
2018-12-18T09:36:48.706Z,99073.23
2018-12-18T09:39:19.670Z,99070.09
2018-12-18T09:41:51.087Z,99070.97
2018-12-18T09:44:21.933Z,99071.09
2018-12-18T09:46:51.314Z,99064.02
2018-12-18T09:49:20.842Z,99064.30
2018-12-18T09:51:50.741Z,99059.64
2018-12-18T09:54:20.031Z,99049.98
2018-12-18T09:56:51.688Z,99039.23
2018-12-18T09:59:21.345Z,99034.59
2018-12-18T10:01:50.678Z,99032.92
2018-12-18T10:04:20.712Z,99031.45
2018-12-18T10:06:50.862Z,99029.36
2018-12-18T10:09:21.109Z,99030.27
2018-12-18T10:11:51.393Z,99024.83
2018-12-18T10:14:21.487Z,99014.60
2018-12-18T10:16:51.675Z,99014.39
2018-12-18T10:19:21.082Z,99002.45
2018-12-18T10:21:50.667Z,98999.18
2018-12-18T10:24:20.348Z,98999.05
2018-12-18T10:26:49.798Z,98992.84
2018-12-18T10:29:19.371Z,98985.75
2018-12-18T10:31:48.981Z,98965.13
2018-12-18T10:34:18.587Z,98957.88
2018-12-18T10:36:48.529Z,98964.09
2018-12-18T10:39:18.588Z,98966.80
2018-12-18T10:41:48.126Z,98968.98
2018-12-18T10:44:17.705Z,98957.74
2018-12-18T10:46:47.258Z,98956.09
2018-12-18T10:49:16.568Z,98952.52
2018-12-18T10:51:45.797Z,98942.00
2018-12-18T10:54:15.787Z,98936.56
2018-12-18T10:56:46.312Z,98938.77
2018-12-18T10:59:16.344Z,98927.97
2018-12-18T11:03:12.063Z,98915.25
2018-12-18T11:05:42.682Z,98906.23
2018-12-18T11:08:12.895Z,98888.28
2018-12-18T11:10:43.021Z,98875.72
2018-12-18T11:13:19.153Z,98867.13
2018-12-18T11:15:49.359Z,98857.78
2018-12-18T11:18:19.422Z,98848.67
2018-12-18T11:20:49.666Z,98840.03
2018-12-18T11:23:20.194Z,98837.51
2018-12-18T11:25:50.927Z,98835.95
2018-12-18T11:28:21.202Z,98842.97
2018-12-18T11:30:51.556Z,98833.52
2018-12-18T11:33:21.592Z,98818.31
2018-12-18T11:35:52.012Z,98802.66
2018-12-18T11:38:22.025Z,98797.34
2018-12-18T11:40:52.002Z,98795.28
2018-12-18T11:43:22.859Z,98787.42
2018-12-18T11:45:52.412Z,98781.87
2018-12-18T11:48:22.863Z,98770.53
2018-12-18T11:50:52.985Z,98777.67
2018-12-18T11:53:22.703Z,98778.06
2018-12-18T11:55:52.329Z,98778.80
2018-12-18T11:58:21.733Z,98767.91
2018-12-18T12:00:53.603Z,98752.34
2018-12-18T12:03:22.900Z,98757.93
2018-12-18T12:05:54.439Z,98750.70
2018-12-18T12:08:24.356Z,98748.70
2018-12-18T12:10:53.736Z,98746.70
2018-12-18T12:13:23.769Z,98749.88
2018-12-18T12:15:53.117Z,98752.95
2018-12-18T12:18:22.678Z,98746.97
2018-12-18T12:20:52.500Z,98731.98
2018-12-18T12:23:22.248Z,98721.47
2018-12-18T12:25:51.746Z,98725.16
2018-12-18T12:28:21.982Z,98724.30
2018-12-18T12:30:51.274Z,98714.65
2018-12-18T12:33:20.772Z,98714.55
2018-12-18T12:35:50.599Z,98702.66
2018-12-18T12:38:20.028Z,98700.73
2018-12-18T12:40:49.530Z,98707.09
2018-12-18T12:43:19.152Z,98707.91
2018-12-18T12:45:48.678Z,98700.48
2018-12-18T12:48:19.647Z,98692.56
2018-12-18T12:50:49.022Z,98680.77
2018-12-18T12:53:19.007Z,98686.12
2018-12-18T12:55:49.217Z,98679.69
2018-12-18T12:58:18.673Z,98675.80
2018-12-18T13:00:48.772Z,98674.53
2018-12-18T13:03:18.928Z,98674.27
2018-12-18T13:05:49.036Z,98666.42
2018-12-18T13:08:18.407Z,98656.45
2018-12-18T13:10:48.713Z,98650.40
2018-12-18T13:13:18.167Z,98637.15
2018-12-18T13:15:47.546Z,98641.27
2018-12-18T13:19:31.191Z,98637.09
2018-12-18T13:22:00.707Z,98634.47
2018-12-18T13:24:30.688Z,98634.30
2018-12-18T13:27:00.306Z,98630.97
2018-12-18T13:29:30.386Z,98630.70
2018-12-18T13:32:00.268Z,98638.75
2018-12-18T13:34:29.626Z,98635.67
2018-12-18T13:36:59.065Z,98633.80
2018-12-18T13:39:28.743Z,98632.33
2018-12-18T13:41:58.822Z,98634.33
2018-12-18T13:44:28.409Z,98635.20
2018-12-18T13:46:57.866Z,98634.38
2018-12-18T13:49:27.420Z,98634.38
2018-12-18T13:51:56.867Z,98630.73
2018-12-18T13:54:27.132Z,98627.95
2018-12-18T13:56:56.627Z,98628.48
2018-12-18T13:59:27.216Z,98610.12
2018-12-18T14:01:56.798Z,98606.34
2018-12-18T14:04:27.058Z,98605.87
2018-12-18T14:06:56.347Z,98595.09
2018-12-18T14:09:25.536Z,98597.16
2018-12-18T14:11:55.087Z,98603.72
2018-12-18T14:14:25.846Z,98598.94
2018-12-18T14:16:55.270Z,98594.07
2018-12-18T14:19:24.821Z,98599.21
2018-12-18T14:21:54.473Z,98597.08
2018-12-18T14:24:24.036Z,98603.23
2018-12-18T14:26:53.525Z,98602.98
2018-12-18T14:29:23.207Z,98598.67
2018-12-18T14:31:52.636Z,98598.12
2018-12-18T14:34:22.211Z,98588.67
2018-12-18T14:36:56.238Z,98587.30
2018-12-18T14:39:23.192Z,98585.93
2018-12-18T14:41:52.762Z,98580.75
2018-12-18T14:44:24.837Z,98578.52
2018-12-18T14:46:54.611Z,98573.84
2018-12-18T14:49:23.990Z,98572.26
2018-12-18T14:51:54.775Z,98561.40
2018-12-18T14:54:24.398Z,98557.37
2018-12-18T14:56:54.351Z,98552.73
2018-12-18T14:59:24.168Z,98549.16
2018-12-18T15:01:53.861Z,98549.60
2018-12-18T15:04:23.091Z,98547.08
2018-12-18T15:06:53.161Z,98547.97
2018-12-18T15:09:22.522Z,98540.63
2018-12-18T15:11:52.424Z,98535.67
2018-12-18T15:14:21.985Z,98543.88
2018-12-18T15:16:52.229Z,98547.06
2018-12-18T15:19:22.339Z,98550.81
2018-12-18T15:21:52.073Z,98548.36
2018-12-18T15:24:22.617Z,98548.31
2018-12-18T15:26:52.962Z,98545.63
2018-12-18T15:29:22.249Z,98552.50
2018-12-18T15:31:52.139Z,98544.52
2018-12-18T15:34:22.443Z,98539.80
2018-12-18T15:36:51.917Z,98540.11
2018-12-18T15:39:21.793Z,98532.36
2018-12-18T15:41:51.169Z,98534.90
2018-12-18T15:44:21.379Z,98525.20
2018-12-18T15:46:51.721Z,98524.67
2018-12-18T15:49:21.659Z,98517.64
2018-12-18T15:51:51.001Z,98517.38
2018-12-18T15:54:20.995Z,98516.69
2018-12-18T15:56:50.498Z,98512.45
2018-12-18T15:59:20.480Z,98502.61
2018-12-18T16:01:50.883Z,98506.38
2018-12-18T16:04:21.434Z,98507.75
2018-12-18T16:06:50.863Z,98505.92
2018-12-18T16:09:20.393Z,98513.81
2018-12-18T16:11:50.126Z,98504.41
2018-12-18T16:14:19.763Z,98500.36
2018-12-18T16:16:49.519Z,98501.48
2018-12-18T16:19:19.488Z,98492.41
2018-12-18T16:21:50.002Z,98492.92
2018-12-18T16:24:19.844Z,98490.73
2018-12-18T16:26:49.519Z,98495.89
2018-12-18T16:29:18.896Z,98494.67
2018-12-18T16:31:48.389Z,98495.55
2018-12-18T16:34:18.799Z,98487.03
2018-12-18T16:36:50.600Z,98492.72
2018-12-18T16:39:19.918Z,98491.06
2018-12-18T16:41:49.964Z,98479.66
2018-12-18T16:44:19.505Z,98470.08
2018-12-18T16:46:50.067Z,98458.50
2018-12-18T16:49:19.514Z,98448.23
2018-12-18T16:51:49.127Z,98451.98
2018-12-18T16:54:19.045Z,98454.20
2018-12-18T16:56:48.825Z,98446.19
2018-12-18T16:59:18.480Z,98446.53
2018-12-18T17:01:48.679Z,98434.65
2018-12-18T17:04:18.965Z,98432.77
2018-12-18T17:06:49.012Z,98431.90
2018-12-18T17:09:19.315Z,98419.81
2018-12-18T17:11:49.289Z,98422.15
2018-12-18T17:14:18.824Z,98422.59
2018-12-18T17:16:48.435Z,98423.92
2018-12-18T17:19:18.843Z,98421.44
2018-12-18T17:21:48.331Z,98429.42
2018-12-18T17:24:17.700Z,98432.57
2018-12-18T17:26:47.646Z,98436.58
2018-12-18T17:29:17.926Z,98439.71
2018-12-18T17:31:48.240Z,98441.98
2018-12-18T17:34:18.211Z,98447.09
2018-12-18T17:36:47.616Z,98447.09
2018-12-18T17:39:17.230Z,98447.45
2018-12-18T17:41:46.933Z,98447.23
2018-12-18T17:44:16.406Z,98451.31
2018-12-18T17:46:46.282Z,98451.50
2018-12-18T17:49:15.825Z,98456.59
2018-12-18T17:51:45.915Z,98456.77
2018-12-18T17:54:15.840Z,98463.45
2018-12-18T17:56:45.319Z,98463.77
2018-12-18T17:59:15.032Z,98473.61
2018-12-18T18:01:44.525Z,98472.70
2018-12-18T18:04:13.934Z,98462.76
2018-12-18T18:06:43.945Z,98463.13
2018-12-18T18:09:14.166Z,98466.00
2018-12-18T18:11:43.586Z,98466.63
2018-12-18T18:14:13.235Z,98476.66
2018-12-18T18:16:43.866Z,98480.33
2018-12-18T18:19:14.042Z,98466.66
2018-12-18T18:21:44.457Z,98470.72
2018-12-18T18:24:14.539Z,98480.15
2018-12-18T18:26:44.552Z,98474.52
2018-12-18T18:29:14.952Z,98478.19
2018-12-18T18:31:45.031Z,98475.21
2018-12-18T18:34:14.553Z,98480.16
2018-12-18T18:36:44.458Z,98481.62
2018-12-18T18:39:15.856Z,98478.37
2018-12-18T18:41:45.819Z,98476.49
2018-12-18T18:44:15.985Z,98473.84
2018-12-18T18:46:45.499Z,98473.24
2018-12-18T18:49:15.410Z,98468.86
2018-12-18T18:51:45.720Z,98463.91
2018-12-18T18:54:15.659Z,98464.82
2018-12-18T18:56:45.263Z,98453.84
2018-12-18T18:59:15.246Z,98444.42
2018-12-18T19:01:45.636Z,98441.11
2018-12-18T19:04:15.664Z,98434.81
2018-12-18T19:06:45.726Z,98420.27
2018-12-18T19:09:15.297Z,98416.60
2018-12-18T19:11:45.155Z,98397.86
2018-12-18T19:14:15.842Z,98390.92
2018-12-18T19:16:45.630Z,98393.84
2018-12-18T19:19:15.061Z,98392.42
2018-12-18T19:21:45.014Z,98402.56
2018-12-18T19:24:15.261Z,98407.44
2018-12-18T19:26:44.650Z,98402.64
2018-12-18T19:29:14.290Z,98394.34
2018-12-18T19:31:43.959Z,98386.80
2018-12-18T19:34:13.435Z,98390.17
2018-12-18T19:36:43.881Z,98391.28
2018-12-18T19:39:13.864Z,98378.41
2018-12-18T19:41:43.717Z,98385.00
2018-12-18T19:44:13.374Z,98383.91
2018-12-18T19:46:42.987Z,98381.56
2018-12-18T19:49:12.594Z,98381.62
2018-12-18T19:51:42.765Z,98374.09
2018-12-18T19:54:12.800Z,98382.16
2018-12-18T19:56:42.333Z,98376.17
2018-12-18T19:59:12.524Z,98381.98
2018-12-18T20:01:42.389Z,98390.91
2018-12-18T20:04:12.882Z,98388.45
2018-12-18T20:06:43.380Z,98382.36
2018-12-18T20:09:12.986Z,98383.56
2018-12-18T20:11:43.339Z,98389.58
2018-12-18T20:14:13.358Z,98384.03
2018-12-18T20:16:42.856Z,98382.30
2018-12-18T20:19:12.734Z,98391.88
2018-12-18T20:21:42.905Z,98380.78
2018-12-18T20:24:13.598Z,98379.80
2018-12-18T20:26:43.424Z,98367.91
2018-12-18T20:29:12.881Z,98369.66
2018-12-18T20:31:42.761Z,98370.29
2018-12-18T20:34:12.242Z,98364.49
2018-12-18T20:36:42.529Z,98370.05
2018-12-18T20:39:13.534Z,98364.59
2018-12-18T20:41:44.279Z,98353.42
2018-12-18T20:44:13.814Z,98358.91
2018-12-18T20:46:44.107Z,98357.17
2018-12-18T20:49:14.122Z,98355.01
2018-12-18T20:51:44.460Z,98350.46
2018-12-18T20:54:14.610Z,98355.27
2018-12-18T20:56:44.335Z,98345.71
2018-12-18T20:59:14.016Z,98339.00
2018-12-18T21:04:27.932Z,98325.42
2018-12-18T21:06:58.842Z,98330.39
2018-12-18T21:09:28.454Z,98326.63
2018-12-18T21:11:58.783Z,98322.85
2018-12-18T21:14:29.010Z,98322.73
2018-12-18T21:16:58.528Z,98324.17
2018-12-18T21:19:30.369Z,98318.47
2018-12-18T21:22:00.031Z,98322.97
2018-12-18T21:24:29.617Z,98322.13
2018-12-18T21:27:00.280Z,98330.07
2018-12-18T21:29:30.345Z,98320.93
2018-12-18T21:32:00.315Z,98318.28
2018-12-18T21:34:30.082Z,98313.17
2018-12-18T21:37:00.975Z,98313.83
2018-12-18T21:39:30.739Z,98315.42
2018-12-18T21:42:00.201Z,98321.05
2018-12-18T21:44:30.022Z,98322.27
2018-12-18T21:47:00.342Z,98327.56
2018-12-18T21:49:30.066Z,98320.73
2018-12-18T21:51:59.905Z,98315.24
2018-12-18T21:54:29.289Z,98314.85
2018-12-18T21:56:59.042Z,98313.23
2018-12-18T21:59:28.654Z,98314.38
2018-12-18T22:01:58.357Z,98313.67
2018-12-18T22:04:28.989Z,98311.77
2018-12-18T22:06:59.126Z,98308.19
2018-12-18T22:09:28.693Z,98293.63
2018-12-18T22:11:58.406Z,98290.16
2018-12-18T22:14:28.671Z,98288.86
2018-12-18T22:16:58.130Z,98288.84
2018-12-18T22:19:27.744Z,98290.98
2018-12-18T22:21:57.330Z,98284.08
2018-12-18T22:24:26.826Z,98285.49
2018-12-18T22:26:56.495Z,98279.11
2018-12-18T22:29:25.925Z,98268.14
2018-12-18T22:31:56.135Z,98266.98
2018-12-18T22:34:25.706Z,98265.06
2018-12-18T22:36:55.466Z,98259.39
2018-12-18T22:39:24.850Z,98246.41
2018-12-18T22:41:55.031Z,98239.80
2018-12-18T22:44:24.418Z,98255.43
2018-12-18T22:46:53.990Z,98253.50
2018-12-18T22:49:23.506Z,98260.23
2018-12-18T22:56:41.534Z,98245.21
2018-12-18T22:59:11.085Z,98244.66
2018-12-18T23:01:47.377Z,98243.33
2018-12-18T23:04:17.954Z,98239.68
2018-12-18T23:06:47.336Z,98241.83
2018-12-18T23:09:17.400Z,98235.83
2018-12-18T23:11:46.971Z,98236.75
2018-12-18T23:14:17.813Z,98241.22
2018-12-18T23:16:47.131Z,98240.91
2018-12-18T23:19:17.103Z,98238.48
2018-12-18T23:21:47.399Z,98243.64
2018-12-18T23:24:16.925Z,98229.94
2018-12-18T23:26:46.756Z,98224.44
2018-12-18T23:29:16.205Z,98226.36
2018-12-18T23:31:46.393Z,98224.34
2018-12-18T23:34:17.990Z,98218.84
2018-12-18T23:36:47.590Z,98219.15
2018-12-18T23:39:17.924Z,98216.29
2018-12-18T23:41:47.643Z,98217.61
2018-12-18T23:44:17.409Z,98216.00
2018-12-18T23:46:47.626Z,98216.13
2018-12-18T23:49:17.241Z,98212.14
2018-12-18T23:51:46.793Z,98212.64
2018-12-18T23:54:16.086Z,98208.36
2018-12-18T23:56:45.538Z,98207.25
2018-12-18T23:59:15.416Z,98206.31
